Bleecker, New York
Current Conditions -  °F | °C
As of 1:55 PM on Monday 20 Oct 2014 (Local Time) from KNY0 Reporting Station
Scattered Clouds Scattered Clouds  
Wind Chill: 49°   Ceiling: Unl
Heat Index: 49°   Visibility: 10mi
Dew Point: 35°   Wind: 0mph
Humidity: 60%   Direction: NA
Pressure: 29.94"   Gusts: NA
Location:  43.1204°N, 74.3629°W
Report Text: KNY0 201755Z AUTO 00000KT 10SM SCT100 09/02 A2994 RMK AO2 T00920017 10095 21007
Loading
Personal Weather Stations






























Interactive Weather Map New forecast layout! Learn more

10-Day Weather Forecast

Advertisements
Track Severe Weather on mobile